sensor_id;sensor_type;location;lat;lon;timestamp;P1;durP1;ratioP1;P2;durP2;ratioP2
37341;SDS011;58643;49.052;8.518;2023-04-15T00:02:20;8.20;;;2.88;;
37341;SDS011;58643;49.052;8.518;2023-04-15T00:04:46;11.82;;;3.42;;
37341;SDS011;58643;49.052;8.518;2023-04-15T00:07:12;6.97;;;3.33;;
37341;SDS011;58643;49.052;8.518;2023-04-15T00:09:40;8.27;;;3.83;;
37341;SDS011;58643;49.052;8.518;2023-04-15T00:12:06;6.75;;;2.85;;
37341;SDS011;58643;49.052;8.518;2023-04-15T00:14:33;4.97;;;2.67;;
37341;SDS011;58643;49.052;8.518;2023-04-15T00:17:00;6.38;;;2.70;;
37341;SDS011;58643;49.052;8.518;2023-04-15T00:19:26;8.55;;;2.80;;
37341;SDS011;58643;49.052;8.518;2023-04-15T00:21:52;7.97;;;3.70;;
37341;SDS011;58643;49.052;8.518;2023-04-15T00:24:17;6.80;;;3.80;;
37341;SDS011;58643;49.052;8.518;2023-04-15T00:26:43;6.93;;;3.20;;
37341;SDS011;58643;49.052;8.518;2023-04-15T00:29:09;7.60;;;2.97;;
37341;SDS011;58643;49.052;8.518;2023-04-15T00:31:34;5.82;;;3.05;;
37341;SDS011;58643;49.052;8.518;2023-04-15T00:34:00;7.60;;;2.83;;
37341;SDS011;58643;49.052;8.518;2023-04-15T00:36:26;5.22;;;2.75;;
37341;SDS011;58643;49.052;8.518;2023-04-15T00:38:52;5.82;;;2.75;;
37341;SDS011;58643;49.052;8.518;2023-04-15T00:41:17;9.38;;;2.83;;
37341;SDS011;58643;49.052;8.518;2023-04-15T00:43:43;6.70;;;3.17;;
37341;SDS011;58643;49.052;8.518;2023-04-15T00:46:09;7.25;;;2.92;;
37341;SDS011;58643;49.052;8.518;2023-04-15T00:48:38;8.57;;;3.03;;
37341;SDS011;58643;49.052;8.518;2023-04-15T00:51:04;9.68;;;2.90;;
37341;SDS011;58643;49.052;8.518;2023-04-15T00:53:31;7.88;;;3.42;;
37341;SDS011;58643;49.052;8.518;2023-04-15T00:55:57;9.27;;;3.30;;
37341;SDS011;58643;49.052;8.518;2023-04-15T00:58:22;7.47;;;2.58;;
37341;SDS011;58643;49.052;8.518;2023-04-15T01:00:48;7.28;;;3.13;;
37341;SDS011;58643;49.052;8.518;2023-04-15T01:05:44;11.55;;;3.33;;
37341;SDS011;58643;49.052;8.518;2023-04-15T01:08:10;6.93;;;3.60;;
37341;SDS011;58643;49.052;8.518;2023-04-15T01:10:36;8.02;;;3.30;;
37341;SDS011;58643;49.052;8.518;2023-04-15T01:13:02;5.85;;;3.28;;
37341;SDS011;58643;49.052;8.518;2023-04-15T01:15:28;9.82;;;3.65;;
37341;SDS011;58643;49.052;8.518;2023-04-15T01:17:54;8.40;;;3.67;;
37341;SDS011;58643;49.052;8.518;2023-04-15T01:20:22;8.20;;;3.78;;
37341;SDS011;58643;49.052;8.518;2023-04-15T01:22:48;9.55;;;3.20;;
37341;SDS011;58643;49.052;8.518;2023-04-15T01:25:18;8.77;;;3.47;;
37341;SDS011;58643;49.052;8.518;2023-04-15T01:27:51;9.65;;;3.20;;
37341;SDS011;58643;49.052;8.518;2023-04-15T01:30:16;7.55;;;3.20;;
37341;SDS011;58643;49.052;8.518;2023-04-15T01:32:42;6.20;;;2.95;;
37341;SDS011;58643;49.052;8.518;2023-04-15T01:35:08;6.00;;;2.67;;
37341;SDS011;58643;49.052;8.518;2023-04-15T01:37:33;5.85;;;2.83;;
37341;SDS011;58643;49.052;8.518;2023-04-15T01:40:00;10.20;;;3.67;;
37341;SDS011;58643;49.052;8.518;2023-04-15T01:42:27;9.43;;;3.00;;
37341;SDS011;58643;49.052;8.518;2023-04-15T01:44:53;8.82;;;3.25;;
37341;SDS011;58643;49.052;8.518;2023-04-15T01:47:18;8.63;;;3.25;;
37341;SDS011;58643;49.052;8.518;2023-04-15T01:49:44;6.28;;;2.95;;
37341;SDS011;58643;49.052;8.518;2023-04-15T01:52:10;7.35;;;2.80;;
37341;SDS011;58643;49.052;8.518;2023-04-15T01:54:36;9.63;;;3.30;;
37341;SDS011;58643;49.052;8.518;2023-04-15T01:57:01;13.52;;;3.35;;
37341;SDS011;58643;49.052;8.518;2023-04-15T01:59:27;6.57;;;2.85;;
37341;SDS011;58643;49.052;8.518;2023-04-15T02:01:53;8.90;;;3.10;;
37341;SDS011;58643;49.052;8.518;2023-04-15T02:04:19;5.95;;;3.90;;
37341;SDS011;58643;49.052;8.518;2023-04-15T02:06:44;12.32;;;3.10;;
37341;SDS011;58643;49.052;8.518;2023-04-15T02:09:10;10.52;;;2.72;;
37341;SDS011;58643;49.052;8.518;2023-04-15T02:11:36;12.88;;;2.60;;
37341;SDS011;58643;49.052;8.518;2023-04-15T02:14:02;6.30;;;2.88;;
37341;SDS011;58643;49.052;8.518;2023-04-15T02:16:30;7.15;;;3.03;;
37341;SDS011;58643;49.052;8.518;2023-04-15T02:18:57;8.27;;;2.78;;
37341;SDS011;58643;49.052;8.518;2023-04-15T02:21:25;9.68;;;3.22;;
37341;SDS011;58643;49.052;8.518;2023-04-15T02:23:50;11.00;;;3.50;;
37341;SDS011;58643;49.052;8.518;2023-04-15T02:26:18;10.82;;;3.00;;
37341;SDS011;58643;49.052;8.518;2023-04-15T02:28:43;6.15;;;2.80;;
37341;SDS011;58643;49.052;8.518;2023-04-15T02:31:09;6.57;;;3.03;;
37341;SDS011;58643;49.052;8.518;2023-04-15T02:33:35;7.18;;;2.83;;
37341;SDS011;58643;49.052;8.518;2023-04-15T02:36:01;7.25;;;2.90;;
37341;SDS011;58643;49.052;8.518;2023-04-15T02:38:27;7.05;;;2.65;;
37341;SDS011;58643;49.052;8.518;2023-04-15T02:40:53;8.10;;;3.22;;
37341;SDS011;58643;49.052;8.518;2023-04-15T02:43:18;7.28;;;3.08;;
37341;SDS011;58643;49.052;8.518;2023-04-15T02:45:45;7.25;;;2.83;;
37341;SDS011;58643;49.052;8.518;2023-04-15T02:48:11;9.38;;;3.47;;
37341;SDS011;58643;49.052;8.518;2023-04-15T02:50:36;6.38;;;3.22;;
37341;SDS011;58643;49.052;8.518;2023-04-15T02:53:05;8.53;;;3.47;;
37341;SDS011;58643;49.052;8.518;2023-04-15T02:55:31;6.00;;;2.88;;
37341;SDS011;58643;49.052;8.518;2023-04-15T02:57:57;7.97;;;3.67;;
37341;SDS011;58643;49.052;8.518;2023-04-15T03:00:24;7.78;;;2.97;;
37341;SDS011;58643;49.052;8.518;2023-04-15T03:02:51;5.80;;;3.00;;
37341;SDS011;58643;49.052;8.518;2023-04-15T03:05:21;5.63;;;3.17;;
37341;SDS011;58643;49.052;8.518;2023-04-15T03:07:50;5.82;;;3.10;;
37341;SDS011;58643;49.052;8.518;2023-04-15T03:10:16;6.20;;;3.30;;
37341;SDS011;58643;49.052;8.518;2023-04-15T03:12:41;9.65;;;3.70;;
37341;SDS011;58643;49.052;8.518;2023-04-15T03:15:07;15.45;;;3.35;;
37341;SDS011;58643;49.052;8.518;2023-04-15T03:17:33;6.15;;;3.42;;
37341;SDS011;58643;49.052;8.518;2023-04-15T03:20:02;6.03;;;3.13;;
37341;SDS011;58643;49.052;8.518;2023-04-15T03:22:30;8.63;;;3.15;;
37341;SDS011;58643;49.052;8.518;2023-04-15T03:24:56;8.73;;;3.40;;
37341;SDS011;58643;49.052;8.518;2023-04-15T03:27:21;7.10;;;3.30;;
37341;SDS011;58643;49.052;8.518;2023-04-15T03:29:47;10.38;;;3.70;;
37341;SDS011;58643;49.052;8.518;2023-04-15T03:32:13;8.07;;;3.08;;
37341;SDS011;58643;49.052;8.518;2023-04-15T03:34:39;6.15;;;3.28;;
37341;SDS011;58643;49.052;8.518;2023-04-15T03:37:06;8.45;;;3.10;;
37341;SDS011;58643;49.052;8.518;2023-04-15T03:39:31;8.60;;;3.33;;
37341;SDS011;58643;49.052;8.518;2023-04-15T03:41:57;10.13;;;3.75;;
37341;SDS011;58643;49.052;8.518;2023-04-15T03:44:23;7.00;;;3.40;;
37341;SDS011;58643;49.052;8.518;2023-04-15T03:46:52;10.00;;;3.20;;
37341;SDS011;58643;49.052;8.518;2023-04-15T03:49:18;11.05;;;3.78;;
37341;SDS011;58643;49.052;8.518;2023-04-15T03:51:44;10.63;;;3.60;;
37341;SDS011;58643;49.052;8.518;2023-04-15T03:54:10;7.45;;;2.65;;
37341;SDS011;58643;49.052;8.518;2023-04-15T03:56:39;11.03;;;3.33;;
37341;SDS011;58643;49.052;8.518;2023-04-15T03:59:04;7.70;;;3.65;;
37341;SDS011;58643;49.052;8.518;2023-04-15T04:01:30;9.30;;;3.30;;
37341;SDS011;58643;49.052;8.518;2023-04-15T04:03:56;8.98;;;3.72;;
37341;SDS011;58643;49.052;8.518;2023-04-15T04:06:21;8.82;;;3.97;;
37341;SDS011;58643;49.052;8.518;2023-04-15T04:08:47;11.07;;;4.03;;
37341;SDS011;58643;49.052;8.518;2023-04-15T04:11:12;11.68;;;3.97;;
37341;SDS011;58643;49.052;8.518;2023-04-15T04:13:38;7.68;;;3.67;;
37341;SDS011;58643;49.052;8.518;2023-04-15T04:16:04;10.23;;;4.03;;
37341;SDS011;58643;49.052;8.518;2023-04-15T04:18:31;6.78;;;3.50;;
37341;SDS011;58643;49.052;8.518;2023-04-15T04:20:57;5.82;;;3.53;;
37341;SDS011;58643;49.052;8.518;2023-04-15T04:23:22;13.80;;;4.10;;
37341;SDS011;58643;49.052;8.518;2023-04-15T04:25:48;7.82;;;3.67;;
37341;SDS011;58643;49.052;8.518;2023-04-15T04:28:13;8.90;;;3.53;;
37341;SDS011;58643;49.052;8.518;2023-04-15T04:30:39;13.55;;;5.90;;
37341;SDS011;58643;49.052;8.518;2023-04-15T04:33:05;10.60;;;5.13;;
37341;SDS011;58643;49.052;8.518;2023-04-15T04:35:31;7.93;;;4.32;;
37341;SDS011;58643;49.052;8.518;2023-04-15T04:37:59;6.45;;;3.35;;
37341;SDS011;58643;49.052;8.518;2023-04-15T04:40:25;9.85;;;3.40;;
37341;SDS011;58643;49.052;8.518;2023-04-15T04:42:51;11.25;;;3.65;;
37341;SDS011;58643;49.052;8.518;2023-04-15T04:45:17;6.35;;;3.65;;
37341;SDS011;58643;49.052;8.518;2023-04-15T04:47:43;8.85;;;3.65;;
37341;SDS011;58643;49.052;8.518;2023-04-15T04:50:08;6.38;;;3.08;;
37341;SDS011;58643;49.052;8.518;2023-04-15T04:52:35;9.95;;;3.20;;
37341;SDS011;58643;49.052;8.518;2023-04-15T04:55:00;6.18;;;3.42;;
37341;SDS011;58643;49.052;8.518;2023-04-15T04:57:26;9.25;;;3.85;;
37341;SDS011;58643;49.052;8.518;2023-04-15T04:59:51;8.50;;;3.30;;
37341;SDS011;58643;49.052;8.518;2023-04-15T05:02:17;7.93;;;3.53;;
37341;SDS011;58643;49.052;8.518;2023-04-15T05:04:42;10.50;;;3.85;;
37341;SDS011;58643;49.052;8.518;2023-04-15T05:07:08;6.78;;;3.40;;
37341;SDS011;58643;49.052;8.518;2023-04-15T05:09:34;7.43;;;3.42;;
37341;SDS011;58643;49.052;8.518;2023-04-15T05:12:00;8.95;;;3.47;;
37341;SDS011;58643;49.052;8.518;2023-04-15T05:14:27;7.43;;;3.35;;
37341;SDS011;58643;49.052;8.518;2023-04-15T05:16:53;9.55;;;4.38;;
37341;SDS011;58643;49.052;8.518;2023-04-15T05:19:18;8.70;;;3.92;;
37341;SDS011;58643;49.052;8.518;2023-04-15T05:21:44;11.88;;;3.72;;
37341;SDS011;58643;49.052;8.518;2023-04-15T05:24:10;9.13;;;3.58;;
37341;SDS011;58643;49.052;8.518;2023-04-15T05:26:35;10.40;;;4.00;;
37341;SDS011;58643;49.052;8.518;2023-04-15T05:29:01;7.95;;;3.75;;
37341;SDS011;58643;49.052;8.518;2023-04-15T05:31:26;5.88;;;4.00;;
37341;SDS011;58643;49.052;8.518;2023-04-15T05:33:52;9.07;;;3.55;;
37341;SDS011;58643;49.052;8.518;2023-04-15T05:36:17;11.40;;;4.00;;
37341;SDS011;58643;49.052;8.518;2023-04-15T05:38:43;9.98;;;3.33;;
37341;SDS011;58643;49.052;8.518;2023-04-15T05:41:08;9.13;;;3.65;;
37341;SDS011;58643;49.052;8.518;2023-04-15T05:43:34;7.40;;;3.50;;
37341;SDS011;58643;49.052;8.518;2023-04-15T05:46:00;5.93;;;2.90;;
37341;SDS011;58643;49.052;8.518;2023-04-15T05:48:25;10.80;;;3.70;;
37341;SDS011;58643;49.052;8.518;2023-04-15T05:50:51;10.40;;;3.67;;
37341;SDS011;58643;49.052;8.518;2023-04-15T05:53:16;6.40;;;3.80;;
37341;SDS011;58643;49.052;8.518;2023-04-15T05:55:42;9.35;;;3.70;;
37341;SDS011;58643;49.052;8.518;2023-04-15T05:58:08;11.48;;;3.75;;
37341;SDS011;58643;49.052;8.518;2023-04-15T06:00:33;10.93;;;5.35;;
37341;SDS011;58643;49.052;8.518;2023-04-15T06:03:00;18.83;;;5.43;;
37341;SDS011;58643;49.052;8.518;2023-04-15T06:05:26;6.68;;;3.13;;
37341;SDS011;58643;49.052;8.518;2023-04-15T06:07:52;12.25;;;4.05;;
37341;SDS011;58643;49.052;8.518;2023-04-15T06:10:17;12.35;;;6.00;;
37341;SDS011;58643;49.052;8.518;2023-04-15T06:12:43;7.25;;;3.88;;
37341;SDS011;58643;49.052;8.518;2023-04-15T06:15:08;9.88;;;3.78;;
37341;SDS011;58643;49.052;8.518;2023-04-15T06:17:35;8.68;;;4.63;;
37341;SDS011;58643;49.052;8.518;2023-04-15T06:20:01;12.05;;;4.50;;
37341;SDS011;58643;49.052;8.518;2023-04-15T06:22:27;10.13;;;4.55;;
37341;SDS011;58643;49.052;8.518;2023-04-15T06:24:52;13.65;;;4.05;;
37341;SDS011;58643;49.052;8.518;2023-04-15T06:27:18;10.75;;;4.18;;
37341;SDS011;58643;49.052;8.518;2023-04-15T06:29:44;8.68;;;3.60;;
37341;SDS011;58643;49.052;8.518;2023-04-15T06:32:10;10.88;;;4.07;;
37341;SDS011;58643;49.052;8.518;2023-04-15T06:34:36;8.13;;;3.63;;
37341;SDS011;58643;49.052;8.518;2023-04-15T06:37:02;8.15;;;3.80;;
37341;SDS011;58643;49.052;8.518;2023-04-15T06:39:28;11.10;;;4.20;;
37341;SDS011;58643;49.052;8.518;2023-04-15T06:41:53;8.80;;;4.55;;
37341;SDS011;58643;49.052;8.518;2023-04-15T06:44:20;12.10;;;3.50;;
37341;SDS011;58643;49.052;8.518;2023-04-15T06:46:46;10.27;;;3.65;;
37341;SDS011;58643;49.052;8.518;2023-04-15T06:49:11;5.95;;;3.25;;
37341;SDS011;58643;49.052;8.518;2023-04-15T06:51:37;8.43;;;3.35;;
37341;SDS011;58643;49.052;8.518;2023-04-15T06:54:05;10.00;;;3.28;;
37341;SDS011;58643;49.052;8.518;2023-04-15T06:56:31;10.05;;;3.30;;
37341;SDS011;58643;49.052;8.518;2023-04-15T06:58:57;6.88;;;3.40;;
37341;SDS011;58643;49.052;8.518;2023-04-15T07:01:23;7.45;;;3.53;;
37341;SDS011;58643;49.052;8.518;2023-04-15T07:03:49;8.15;;;3.38;;
37341;SDS011;58643;49.052;8.518;2023-04-15T07:06:15;7.90;;;3.45;;
37341;SDS011;58643;49.052;8.518;2023-04-15T07:08:40;9.82;;;2.72;;
37341;SDS011;58643;49.052;8.518;2023-04-15T07:11:06;7.97;;;2.60;;
37341;SDS011;58643;49.052;8.518;2023-04-15T07:13:32;7.43;;;2.92;;
37341;SDS011;58643;49.052;8.518;2023-04-15T07:15:58;7.28;;;3.08;;
37341;SDS011;58643;49.052;8.518;2023-04-15T07:18:24;8.98;;;2.85;;
37341;SDS011;58643;49.052;8.518;2023-04-15T07:20:50;7.65;;;3.33;;
37341;SDS011;58643;49.052;8.518;2023-04-15T07:23:15;11.75;;;3.40;;
37341;SDS011;58643;49.052;8.518;2023-04-15T07:25:41;11.13;;;3.78;;
37341;SDS011;58643;49.052;8.518;2023-04-15T07:28:06;10.48;;;3.60;;
37341;SDS011;58643;49.052;8.518;2023-04-15T07:30:32;8.80;;;3.53;;
37341;SDS011;58643;49.052;8.518;2023-04-15T07:32:58;7.80;;;3.30;;
37341;SDS011;58643;49.052;8.518;2023-04-15T07:35:24;10.75;;;3.30;;
37341;SDS011;58643;49.052;8.518;2023-04-15T07:37:50;5.03;;;3.17;;
37341;SDS011;58643;49.052;8.518;2023-04-15T07:40:16;7.30;;;3.15;;
37341;SDS011;58643;49.052;8.518;2023-04-15T07:42:42;8.80;;;2.55;;
37341;SDS011;58643;49.052;8.518;2023-04-15T07:45:08;9.48;;;2.50;;
37341;SDS011;58643;49.052;8.518;2023-04-15T07:47:34;4.07;;;2.30;;
37341;SDS011;58643;49.052;8.518;2023-04-15T07:50:00;5.75;;;2.28;;
37341;SDS011;58643;49.052;8.518;2023-04-15T07:52:26;4.68;;;2.05;;
37341;SDS011;58643;49.052;8.518;2023-04-15T07:54:52;8.52;;;2.33;;
37341;SDS011;58643;49.052;8.518;2023-04-15T07:57:18;11.40;;;2.42;;
37341;SDS011;58643;49.052;8.518;2023-04-15T07:59:43;7.75;;;2.35;;
37341;SDS011;58643;49.052;8.518;2023-04-15T08:02:09;8.13;;;2.63;;
37341;SDS011;58643;49.052;8.518;2023-04-15T08:04:35;8.15;;;2.53;;
37341;SDS011;58643;49.052;8.518;2023-04-15T08:07:01;7.60;;;2.97;;
37341;SDS011;58643;49.052;8.518;2023-04-15T08:09:28;8.77;;;2.60;;
37341;SDS011;58643;49.052;8.518;2023-04-15T08:11:53;11.35;;;3.22;;
37341;SDS011;58643;49.052;8.518;2023-04-15T08:14:20;7.95;;;3.47;;
37341;SDS011;58643;49.052;8.518;2023-04-15T08:16:46;10.02;;;3.00;;
37341;SDS011;58643;49.052;8.518;2023-04-15T08:19:12;10.10;;;3.20;;
37341;SDS011;58643;49.052;8.518;2023-04-15T08:21:37;6.80;;;3.38;;
37341;SDS011;58643;49.052;8.518;2023-04-15T08:24:04;9.18;;;4.90;;
37341;SDS011;58643;49.052;8.518;2023-04-15T08:26:30;6.88;;;3.85;;
37341;SDS011;58643;49.052;8.518;2023-04-15T08:28:56;13.40;;;4.53;;
37341;SDS011;58643;49.052;8.518;2023-04-15T08:31:22;9.60;;;4.30;;
37341;SDS011;58643;49.052;8.518;2023-04-15T08:33:48;10.25;;;4.28;;
37341;SDS011;58643;49.052;8.518;2023-04-15T08:36:16;9.30;;;4.57;;
37341;SDS011;58643;49.052;8.518;2023-04-15T08:38:43;13.75;;;4.30;;
37341;SDS011;58643;49.052;8.518;2023-04-15T08:41:26;9.18;;;4.22;;
37341;SDS011;58643;49.052;8.518;2023-04-15T08:44:03;9.70;;;3.72;;
37341;SDS011;58643;49.052;8.518;2023-04-15T08:46:30;7.90;;;3.10;;
37341;SDS011;58643;49.052;8.518;2023-04-15T08:48:58;13.60;;;3.45;;
37341;SDS011;58643;49.052;8.518;2023-04-15T08:51:27;7.38;;;3.00;;
37341;SDS011;58643;49.052;8.518;2023-04-15T08:53:53;7.97;;;3.28;;
37341;SDS011;58643;49.052;8.518;2023-04-15T08:56:19;7.30;;;3.20;;
37341;SDS011;58643;49.052;8.518;2023-04-15T08:58:52;7.05;;;3.22;;
37341;SDS011;58643;49.052;8.518;2023-04-15T09:01:18;8.38;;;3.20;;
37341;SDS011;58643;49.052;8.518;2023-04-15T09:03:44;9.05;;;3.10;;
37341;SDS011;58643;49.052;8.518;2023-04-15T09:06:12;8.47;;;3.00;;
37341;SDS011;58643;49.052;8.518;2023-04-15T09:08:40;5.15;;;2.80;;
37341;SDS011;58643;49.052;8.518;2023-04-15T09:11:06;5.30;;;2.80;;
37341;SDS011;58643;49.052;8.518;2023-04-15T09:13:32;5.97;;;2.92;;
37341;SDS011;58643;49.052;8.518;2023-04-15T09:16:00;15.75;;;4.10;;
37341;SDS011;58643;49.052;8.518;2023-04-15T09:18:31;8.77;;;3.58;;
37341;SDS011;58643;49.052;8.518;2023-04-15T09:21:04;7.68;;;3.13;;
37341;SDS011;58643;49.052;8.518;2023-04-15T09:23:33;8.23;;;3.65;;
37341;SDS011;58643;49.052;8.518;2023-04-15T09:26:00;6.68;;;2.97;;
37341;SDS011;58643;49.052;8.518;2023-04-15T09:28:27;8.07;;;3.05;;
37341;SDS011;58643;49.052;8.518;2023-04-15T09:30:59;10.25;;;3.25;;
37341;SDS011;58643;49.052;8.518;2023-04-15T09:33:26;7.30;;;3.20;;
37341;SDS011;58643;49.052;8.518;2023-04-15T09:36:00;7.75;;;3.00;;
37341;SDS011;58643;49.052;8.518;2023-04-15T09:38:28;6.20;;;2.60;;
37341;SDS011;58643;49.052;8.518;2023-04-15T09:40:55;6.10;;;2.78;;
37341;SDS011;58643;49.052;8.518;2023-04-15T09:43:22;10.73;;;3.33;;
37341;SDS011;58643;49.052;8.518;2023-04-15T09:45:50;7.38;;;3.17;;
37341;SDS011;58643;49.052;8.518;2023-04-15T09:48:18;10.52;;;3.42;;
37341;SDS011;58643;49.052;8.518;2023-04-15T09:50:45;6.30;;;2.70;;
37341;SDS011;58643;49.052;8.518;2023-04-15T09:53:16;8.80;;;3.10;;
37341;SDS011;58643;49.052;8.518;2023-04-15T09:55:53;5.47;;;3.17;;
37341;SDS011;58643;49.052;8.518;2023-04-15T10:03:25;8.45;;;3.13;;
37341;SDS011;58643;49.052;8.518;2023-04-15T10:05:56;7.93;;;3.42;;
37341;SDS011;58643;49.052;8.518;2023-04-15T10:08:23;6.72;;;3.30;;
37341;SDS011;58643;49.052;8.518;2023-04-15T10:10:53;5.22;;;3.13;;
37341;SDS011;58643;49.052;8.518;2023-04-15T10:13:28;6.68;;;3.50;;
37341;SDS011;58643;49.052;8.518;2023-04-15T10:15:58;11.73;;;3.60;;
37341;SDS011;58643;49.052;8.518;2023-04-15T10:18:31;9.27;;;3.38;;
37341;SDS011;58643;49.052;8.518;2023-04-15T10:21:00;9.93;;;3.63;;
37341;SDS011;58643;49.052;8.518;2023-04-15T10:23:26;8.88;;;3.40;;
37341;SDS011;58643;49.052;8.518;2023-04-15T10:25:52;11.45;;;3.95;;
37341;SDS011;58643;49.052;8.518;2023-04-15T10:28:18;8.40;;;3.50;;
37341;SDS011;58643;49.052;8.518;2023-04-15T10:30:46;7.93;;;3.80;;
37341;SDS011;58643;49.052;8.518;2023-04-15T10:33:14;9.05;;;4.10;;
37341;SDS011;58643;49.052;8.518;2023-04-15T10:35:42;7.17;;;4.07;;
37341;SDS011;58643;49.052;8.518;2023-04-15T10:41:10;8.25;;;3.92;;
37341;SDS011;58643;49.052;8.518;2023-04-15T10:43:44;8.70;;;4.07;;
37341;SDS011;58643;49.052;8.518;2023-04-15T10:46:11;10.70;;;5.00;;
37341;SDS011;58643;49.052;8.518;2023-04-15T10:48:37;9.35;;;4.70;;
37341;SDS011;58643;49.052;8.518;2023-04-15T10:51:02;11.48;;;4.78;;
37341;SDS011;58643;49.052;8.518;2023-04-15T10:53:29;8.23;;;4.65;;
37341;SDS011;58643;49.052;8.518;2023-04-15T10:55:56;9.60;;;4.03;;
37341;SDS011;58643;49.052;8.518;2023-04-15T10:58:22;10.88;;;4.20;;
37341;SDS011;58643;49.052;8.518;2023-04-15T11:00:49;6.90;;;4.00;;
37341;SDS011;58643;49.052;8.518;2023-04-15T11:03:20;14.57;;;4.25;;
37341;SDS011;58643;49.052;8.518;2023-04-15T11:06:03;10.93;;;4.80;;
37341;SDS011;58643;49.052;8.518;2023-04-15T11:11:14;9.55;;;4.20;;
37341;SDS011;58643;49.052;8.518;2023-04-15T11:13:46;9.80;;;4.20;;
37341;SDS011;58643;49.052;8.518;2023-04-15T11:16:16;10.27;;;3.92;;
37341;SDS011;58643;49.052;8.518;2023-04-15T11:18:42;8.90;;;3.72;;
37341;SDS011;58643;49.052;8.518;2023-04-15T11:21:18;9.77;;;4.53;;
37341;SDS011;58643;49.052;8.518;2023-04-15T11:23:48;6.95;;;3.90;;
37341;SDS011;58643;49.052;8.518;2023-04-15T11:26:15;5.97;;;3.45;;
37341;SDS011;58643;49.052;8.518;2023-04-15T11:28:41;7.25;;;3.42;;
37341;SDS011;58643;49.052;8.518;2023-04-15T11:31:10;6.80;;;3.70;;
37341;SDS011;58643;49.052;8.518;2023-04-15T11:33:37;8.30;;;3.67;;
37341;SDS011;58643;49.052;8.518;2023-04-15T11:36:29;6.80;;;3.45;;
37341;SDS011;58643;49.052;8.518;2023-04-15T11:38:58;8.45;;;3.20;;
37341;SDS011;58643;49.052;8.518;2023-04-15T11:41:24;8.77;;;3.53;;
37341;SDS011;58643;49.052;8.518;2023-04-15T11:43:50;13.15;;;3.95;;
37341;SDS011;58643;49.052;8.518;2023-04-15T11:46:16;7.13;;;3.63;;
37341;SDS011;58643;49.052;8.518;2023-04-15T11:48:43;5.60;;;3.38;;
37341;SDS011;58643;49.052;8.518;2023-04-15T11:51:11;7.68;;;3.45;;
37341;SDS011;58643;49.052;8.518;2023-04-15T11:53:41;13.98;;;4.82;;
37341;SDS011;58643;49.052;8.518;2023-04-15T11:56:08;10.88;;;3.58;;
37341;SDS011;58643;49.052;8.518;2023-04-15T11:58:36;9.60;;;4.43;;
37341;SDS011;58643;49.052;8.518;2023-04-15T12:01:03;8.82;;;4.68;;
37341;SDS011;58643;49.052;8.518;2023-04-15T12:03:30;8.70;;;3.70;;
37341;SDS011;58643;49.052;8.518;2023-04-15T12:11:20;10.38;;;3.72;;
37341;SDS011;58643;49.052;8.518;2023-04-15T12:13:53;8.77;;;3.63;;
37341;SDS011;58643;49.052;8.518;2023-04-15T12:16:21;13.70;;;4.15;;
37341;SDS011;58643;49.052;8.518;2023-04-15T12:18:51;6.80;;;3.90;;
37341;SDS011;58643;49.052;8.518;2023-04-15T12:21:22;10.55;;;3.97;;
37341;SDS011;58643;49.052;8.518;2023-04-15T12:23:50;8.20;;;4.32;;
37341;SDS011;58643;49.052;8.518;2023-04-15T12:26:17;6.35;;;3.30;;
37341;SDS011;58643;49.052;8.518;2023-04-15T12:28:49;9.48;;;3.40;;
37341;SDS011;58643;49.052;8.518;2023-04-15T12:31:19;7.43;;;3.47;;
37341;SDS011;58643;49.052;8.518;2023-04-15T12:33:46;8.85;;;3.00;;
37341;SDS011;58643;49.052;8.518;2023-04-15T12:36:12;6.90;;;2.50;;
37341;SDS011;58643;49.052;8.518;2023-04-15T12:38:38;5.53;;;2.10;;
37341;SDS011;58643;49.052;8.518;2023-04-15T12:41:03;5.68;;;2.50;;
37341;SDS011;58643;49.052;8.518;2023-04-15T12:43:29;4.88;;;2.00;;
37341;SDS011;58643;49.052;8.518;2023-04-15T12:45:55;4.85;;;2.08;;
37341;SDS011;58643;49.052;8.518;2023-04-15T12:48:20;6.15;;;1.98;;
37341;SDS011;58643;49.052;8.518;2023-04-15T12:50:46;6.00;;;2.45;;
37341;SDS011;58643;49.052;8.518;2023-04-15T12:53:12;7.43;;;2.35;;
37341;SDS011;58643;49.052;8.518;2023-04-15T12:55:37;6.75;;;3.10;;
37341;SDS011;58643;49.052;8.518;2023-04-15T12:58:03;4.68;;;2.63;;
37341;SDS011;58643;49.052;8.518;2023-04-15T13:00:28;4.85;;;2.50;;
37341;SDS011;58643;49.052;8.518;2023-04-15T13:02:54;5.57;;;2.60;;
37341;SDS011;58643;49.052;8.518;2023-04-15T13:05:19;4.13;;;2.38;;
37341;SDS011;58643;49.052;8.518;2023-04-15T13:07:45;4.68;;;2.10;;
37341;SDS011;58643;49.052;8.518;2023-04-15T13:10:11;5.70;;;2.97;;
37341;SDS011;58643;49.052;8.518;2023-04-15T13:12:36;5.75;;;2.55;;
37341;SDS011;58643;49.052;8.518;2023-04-15T13:15:02;8.23;;;2.67;;
37341;SDS011;58643;49.052;8.518;2023-04-15T13:17:28;7.07;;;2.30;;
37341;SDS011;58643;49.052;8.518;2023-04-15T13:19:54;6.15;;;2.63;;
37341;SDS011;58643;49.052;8.518;2023-04-15T13:22:21;7.35;;;3.20;;
37341;SDS011;58643;49.052;8.518;2023-04-15T13:24:46;6.97;;;2.85;;
37341;SDS011;58643;49.052;8.518;2023-04-15T13:27:12;5.97;;;2.80;;
37341;SDS011;58643;49.052;8.518;2023-04-15T13:29:37;8.05;;;3.00;;
37341;SDS011;58643;49.052;8.518;2023-04-15T13:32:04;13.60;;;3.17;;
37341;SDS011;58643;49.052;8.518;2023-04-15T13:34:30;7.53;;;3.08;;
37341;SDS011;58643;49.052;8.518;2023-04-15T13:36:56;6.93;;;3.50;;
37341;SDS011;58643;49.052;8.518;2023-04-15T13:39:21;8.57;;;3.83;;
37341;SDS011;58643;49.052;8.518;2023-04-15T13:41:47;6.95;;;2.83;;
37341;SDS011;58643;49.052;8.518;2023-04-15T13:44:12;5.65;;;2.72;;
37341;SDS011;58643;49.052;8.518;2023-04-15T13:46:39;6.68;;;2.95;;
37341;SDS011;58643;49.052;8.518;2023-04-15T13:49:06;4.90;;;2.38;;
37341;SDS011;58643;49.052;8.518;2023-04-15T13:51:32;11.00;;;3.30;;
37341;SDS011;58643;49.052;8.518;2023-04-15T13:53:59;8.27;;;2.88;;
37341;SDS011;58643;49.052;8.518;2023-04-15T13:56:25;5.10;;;2.58;;
37341;SDS011;58643;49.052;8.518;2023-04-15T13:58:54;6.03;;;2.63;;
37341;SDS011;58643;49.052;8.518;2023-04-15T14:01:22;5.47;;;2.50;;
37341;SDS011;58643;49.052;8.518;2023-04-15T14:03:49;5.00;;;2.42;;
37341;SDS011;58643;49.052;8.518;2023-04-15T14:06:15;5.07;;;2.17;;
37341;SDS011;58643;49.052;8.518;2023-04-15T14:08:41;7.63;;;2.40;;
37341;SDS011;58643;49.052;8.518;2023-04-15T14:11:06;6.13;;;2.50;;
37341;SDS011;58643;49.052;8.518;2023-04-15T14:13:32;5.65;;;2.63;;
37341;SDS011;58643;49.052;8.518;2023-04-15T14:15:57;5.82;;;2.35;;
37341;SDS011;58643;49.052;8.518;2023-04-15T14:18:23;6.50;;;2.60;;
37341;SDS011;58643;49.052;8.518;2023-04-15T14:20:49;5.88;;;2.65;;
37341;SDS011;58643;49.052;8.518;2023-04-15T14:23:14;4.72;;;2.78;;
37341;SDS011;58643;49.052;8.518;2023-04-15T14:25:40;5.45;;;2.65;;
37341;SDS011;58643;49.052;8.518;2023-04-15T14:28:05;6.90;;;2.25;;
37341;SDS011;58643;49.052;8.518;2023-04-15T14:30:31;4.20;;;2.25;;
37341;SDS011;58643;49.052;8.518;2023-04-15T14:32:57;3.45;;;2.22;;
37341;SDS011;58643;49.052;8.518;2023-04-15T14:35:22;6.25;;;2.22;;
37341;SDS011;58643;49.052;8.518;2023-04-15T14:37:50;7.85;;;2.25;;
37341;SDS011;58643;49.052;8.518;2023-04-15T14:40:17;3.40;;;1.88;;
37341;SDS011;58643;49.052;8.518;2023-04-15T14:42:43;4.68;;;2.05;;
37341;SDS011;58643;49.052;8.518;2023-04-15T14:45:09;4.43;;;1.55;;
37341;SDS011;58643;49.052;8.518;2023-04-15T14:47:35;4.25;;;1.70;;
37341;SDS011;58643;49.052;8.518;2023-04-15T14:50:00;3.28;;;1.60;;
37341;SDS011;58643;49.052;8.518;2023-04-15T14:52:26;4.13;;;1.35;;
37341;SDS011;58643;49.052;8.518;2023-04-15T14:54:52;3.13;;;1.40;;
37341;SDS011;58643;49.052;8.518;2023-04-15T14:57:17;2.03;;;1.13;;
37341;SDS011;58643;49.052;8.518;2023-04-15T14:59:43;5.40;;;1.45;;
37341;SDS011;58643;49.052;8.518;2023-04-15T15:02:08;2.55;;;1.00;;